Acushnet, Massachusetts
Current Conditions -  °F | °C
As of 5:53 PM on Saturday 20 Dec 2014 (Local Time) from KEWB Reporting Station
Overcast Overcast  
Wind Chill: 29°   Ceiling: 4400
Heat Index: 33°   Visibility: 10mi
Dew Point: 29°   Wind: 5mph
Humidity: 85%   Direction: NA
Pressure: 30.26"   Gusts: NA
Location:  41.68°N, 70.91°W
Report Text: KEWB 202253Z VRB04KT 10SM SCT027 OVC044 01/M02 A3026 RMK AO2 SLP248 T00061017
Loading
Personal Weather Stations






























Interactive Weather Map New forecast layout! Learn more

10-Day Weather Forecast

Advertisements
Track Severe Weather on mobile